To NAV CANADA Home Page Login to a new session Search on AWWS site Disclaimer Vers la page française équivalente Tips FAQ What's new on the site To the Forecasts and Observations / NOTAM section To "File a Flight Plan" website Publications and other links Update of the User's profile FIC Telephone Numbers My Weather Data Folder Route Weather Data Regional Weather Data Local Weather Data To the Forecasts and Observations / NOTAM section
Request Generated 11/16/2018 at 01:21:48 UTC . Weather information available at that time is displayed.


Go to a specific product

Save this request - Inactive

METAR/TAF

OTTAWA/MACDONALD-CARTIER INTL/ON    

METAR CYOW 160100Z 08009KT 15SM OVC130 M06/M10 A3021 RMK AC8 SLP242=
METAR CYOW 160000Z 08009KT 15SM OVC160 M06/M10 A3024 RMK AC8 SLP251=
METAR CYOW 152300Z 06007KT 15SM BKN180 OVC200 M06/M11 A3026 RMK AC6CI2 SLP258=

TAF CYOW 152342Z 1600/1624 06008KT P6SM OVC160
FM160100 09012KT P6SM SCT040 OVC120
FM160300 09010KT 5SM -SN OVC040 TEMPO 1603/1604 11/2SM -SN BKN020
OVC040
FM160400 09010KT 1SM -SN VV012 TEMPO 1604/1606 21/2SM -SN OVC030
FM160600 07010KT 3/4SM -SN VV006 PROB30 1606/1609 1/4SM +SN
FM161000 07008KT 2SM -SN VV008
FM161200 07008KT 4SM -SN BKN008 OVC015
FM161600 09008KT 21/2SM -SN SCT008 OVC015
FM162300 11005KT P6SM -SN FEW009 BKN050
RMK NXT FCST BY 160300Z=

OTTAWA/GATINEAU/QC    

METAR CYND 160100Z 08009G15KT 15SM OVC160 M07/M10 A3023 RMK AC8 SLP245=
METAR CYND 160000Z 08010KT 15SM OVC180 M07/M11 A3027 RMK AC8 SLP257=
METAR CYND 152300Z 07009KT 15SM OVC200 M07/M11 A3029 RMK CI8 SLP265=

TAF CYND 152342Z 1600/1602 07010KT P6SM OVC200
FM160100 09012KT P6SM OVC120
RMK NXT FCST WILL BE ISSUED AT 161345Z=


GRAPHICAL FA CLOUDS & WEATHER FORECASTS
To the Product Selector
Graphical FA gfacn33      

GRAPHICAL FA ICING, TURBULENCE & FREEZING LEVEL FORECASTS
To the Product Selector
Graphical FA gfacn33      

Your time UTC time
Weather data provided by Environment Canada and NAV CANADA